Startpagina
METAR-TAF:

METAR-TAF

Vliegvelden :

Luchthaven Schiphol

Amsterdam, Nederland

breedte: 52-18N, lengte: 004-46E, hoogte: -4 m

Actueel weer

Dit bericht is 38 minuten geleden gemaakt, om 05:25 UTC
Wind 1 kt uit variabele richting
Temperatuur 1°C
Vochtigheid 93%
Druk 1027 hPa
Zicht 10 km of meer
Gebroken wolken op 3700 ft

METAR: EHAM 070525Z VRB01KT 9999 BKN037 01/M00 Q1027 NOSIG

Tijdstip: 07:03 (06:03 UTC)

Verwachting

Dit bericht is 57 minuten geleden gemaakt, om 05:06 UTC
Verwachting geldig van 07 om 06 UTC tot 08 om 12 UTC
Wind 3 kt uit variabele richting
Zicht 10 km of meer
Gebroken wolken op 3000 ft
Wijzigt naar
van 07 om 09 UTC tot 07 om 12 UTC
Wind 6 kt uit het westnoordwesten
Tijdelijke
van 08 om 00 UTC tot 08 om 12 UTC
Gebroken wolken op 1800 ft

TAF: EHAM 070506Z 0706/0812 VRB03KT 9999 BKN030 BECMG 0709/0712 30006KT TEMPO 0800/0812 BKN018

Waarnemingen en weersverwachtingen van meer dan 4000 vliegvelden (METAR en TAF).

De beschikbare stations zijn de gele en rode punten op de kaart.

Ga met uw muis naar het station om de naam te zien.

Klik dan om waarnemingen en weersverwachtingen te zien.

kaart wijzigen: klik op de groene knoppen met een zwart kruis om in te zoomen, op de groene knop met een streepje om uit te zoomen of op de groene pijlen voor aangrenzende kaarten.


METAR-TAF: